Time;durP1;ratioP1;P1;durP2;ratioP2;P2;SDS_P1;SDS_P2;PMS_P1;PMS_P2;Temp;Humidity;BMP_temperature;BMP_pressure;BME280_temperature;BME280_humidity;BME280_pressure;Samples;Min_cycle;Max_cycle;Signal;HPM_P1;HPM_P2
2022/01/19 00:02:22;;;;;;;9.50;4.80;;;;;;;5.09;100.00;102860.59;5007464;28;20788;-49
2022/01/19 00:04:49;;;;;;;8.57;4.37;;;;;;;5.08;100.00;102855.28;5009608;28;20224;-49
2022/01/19 00:07:15;;;;;;;10.50;4.80;;;;;;;5.09;100.00;102858.00;4990801;28;20592;-51
2022/01/19 00:09:41;;;;;;;10.23;4.67;;;;;;;5.03;100.00;102852.44;4994499;28;20867;-50
2022/01/19 00:12:08;;;;;;;10.47;4.53;;;;;;;5.04;100.00;102854.22;4999508;28;20248;-50
2022/01/19 00:14:35;;;;;;;9.03;5.30;;;;;;;4.96;100.00;102851.19;5006408;28;20323;-49
2022/01/19 00:17:01;;;;;;;11.50;4.67;;;;;;;5.01;100.00;102848.84;5000211;28;20229;-48
2022/01/19 00:19:29;;;;;;;10.43;5.10;;;;;;;5.03;100.00;102836.81;4995458;28;20810;-48
2022/01/19 00:21:55;;;;;;;14.37;5.67;;;;;;;5.01;100.00;102834.09;5001383;28;20265;-49
2022/01/19 00:24:21;;;;;;;10.60;5.03;;;;;;;4.98;100.00;102833.97;5002751;28;20240;-49
2022/01/19 00:26:48;;;;;;;8.60;4.60;;;;;;;4.97;100.00;102832.16;5003168;28;20318;-50
2022/01/19 00:29:14;;;;;;;13.17;5.57;;;;;;;4.97;100.00;102826.06;4997722;28;20252;-48
2022/01/19 00:31:40;;;;;;;11.10;6.53;;;;;;;4.92;100.00;102822.31;5002496;28;20300;-49
2022/01/19 00:34:07;;;;;;;8.90;4.30;;;;;;;5.09;100.00;102821.53;4999122;28;20261;-49
2022/01/19 00:36:34;;;;;;;11.23;5.53;;;;;;;5.00;100.00;102815.81;5005086;28;20229;-50
2022/01/19 00:39:00;;;;;;;12.17;5.40;;;;;;;4.99;100.00;102829.66;4994673;28;20916;-49
2022/01/19 00:41:27;;;;;;;9.97;4.53;;;;;;;5.09;100.00;102823.22;5015354;28;20316;-50
2022/01/19 00:43:53;;;;;;;6.73;4.90;;;;;;;5.07;100.00;102825.75;5000418;28;20268;-50
2022/01/19 00:46:19;;;;;;;10.43;5.03;;;;;;;5.15;100.00;102820.97;5016474;28;20233;-51
2022/01/19 00:48:46;;;;;;;7.90;4.60;;;;;;;5.01;100.00;102817.59;5001305;28;20221;-50
2022/01/19 00:51:12;;;;;;;7.73;5.57;;;;;;;5.06;100.00;102807.47;5008753;28;20303;-49
2022/01/19 00:53:40;;;;;;;10.80;5.23;;;;;;;5.08;100.00;102808.41;4996927;28;20335;-52
2022/01/19 00:56:06;;;;;;;12.77;5.30;;;;;;;5.06;100.00;102815.25;5002636;28;20241;-49
2022/01/19 00:58:32;;;;;;;9.67;6.13;;;;;;;5.11;100.00;102817.28;4995754;28;20843;-50
2022/01/19 01:00:59;;;;;;;14.33;6.27;;;;;;;4.99;100.00;102814.03;5011983;28;20256;-48
2022/01/19 01:03:25;;;;;;;13.60;5.30;;;;;;;5.03;100.00;102805.56;4993122;28;20906;-50
2022/01/19 01:05:52;;;;;;;10.90;5.20;;;;;;;5.02;100.00;102809.00;4998080;28;20269;-51
2022/01/19 01:08:18;;;;;;;8.77;5.40;;;;;;;4.97;100.00;102818.25;5004543;28;20776;-49
2022/01/19 01:10:46;;;;;;;11.43;5.37;;;;;;;4.81;100.00;102820.78;5009903;28;20275;-50
2022/01/19 01:13:22;;;;;;;12.00;5.40;;;;;;;4.78;100.00;102808.53;5004156;28;20316;-49
2022/01/19 01:16:00;;;;;;;8.13;5.00;;;;;;;4.86;100.00;102806.34;4996381;28;20310;-50
2022/01/19 01:18:27;;;;;;;14.03;5.33;;;;;;;4.87;100.00;102808.13;5005647;28;20240;-49
2022/01/19 01:20:55;;;;;;;11.47;5.90;;;;;;;4.78;100.00;102809.41;5001725;28;20247;-49
2022/01/19 01:23:23;;;;;;;9.77;4.93;;;;;;;4.70;100.00;102804.56;4992732;28;20242;-49
2022/01/19 01:25:52;;;;;;;9.07;5.67;;;;;;;4.92;100.00;102797.16;5002650;28;20253;-51
2022/01/19 01:28:18;;;;;;;12.63;6.07;;;;;;;4.90;100.00;102782.28;5006420;28;20261;-52
2022/01/19 01:30:46;;;;;;;10.47;5.73;;;;;;;4.88;100.00;102769.19;4992128;28;20268;-48
2022/01/19 01:33:12;;;;;;;8.00;6.00;;;;;;;4.86;100.00;102769.91;4995098;28;20241;-50
2022/01/19 01:35:39;;;;;;;9.87;7.17;;;;;;;4.66;100.00;102759.28;4994843;28;20241;-48
2022/01/19 01:38:06;;;;;;;13.30;6.60;;;;;;;4.73;100.00;102757.91;5003121;28;20233;-48
2022/01/19 01:40:34;;;;;;;12.33;7.53;;;;;;;4.60;100.00;102748.56;4991980;28;20252;-51
2022/01/19 01:43:04;;;;;;;12.40;7.47;;;;;;;4.75;100.00;102735.50;4992422;28;20221;-49
2022/01/19 01:45:33;;;;;;;11.80;7.80;;;;;;;4.79;100.00;102727.03;4989337;28;20225;-51
2022/01/19 01:48:10;;;;;;;12.80;7.83;;;;;;;4.84;100.00;102724.69;5002397;28;20225;-50
2022/01/19 01:53:28;;;;;;;11.80;7.93;;;;;;;4.94;100.00;102698.34;4994860;28;20240;-50
2022/01/19 01:56:04;;;;;;;12.33;8.00;;;;;;;4.84;100.00;102693.44;5003107;28;20748;-49
2022/01/19 01:58:33;;;;;;;15.77;8.43;;;;;;;4.83;100.00;102702.06;5010079;28;20376;-50
2022/01/19 02:01:00;;;;;;;13.77;7.57;;;;;;;4.88;100.00;102695.41;5008688;28;20253;-49
2022/01/19 02:03:26;;;;;;;13.80;9.37;;;;;;;4.79;100.00;102696.69;5000201;28;20348;-51
2022/01/19 02:06:20;;;;;;;10.10;7.03;;;;;;;4.84;100.00;102698.66;5009695;28;20239;-49
2022/01/19 02:08:54;;;;;;;15.97;8.20;;;;;;;4.83;100.00;102696.88;5000896;28;20242;-52
2022/01/19 02:23:22;;;;;;;21.73;8.50;;;;;;;4.65;100.00;102682.06;4988622;28;20846;-51
2022/01/19 02:25:49;;;;;;;13.57;7.47;;;;;;;4.79;100.00;102673.28;5000511;28;20237;-51
2022/01/19 02:36:37;;;;;;;15.67;8.50;;;;;;;4.77;100.00;102635.91;5018807;28;20579;-52
2022/01/19 02:41:48;;;;;;;9.67;7.47;;;;;;;4.85;100.00;102631.09;5020948;28;20973;-57
2022/01/19 02:44:29;;;;;;;17.20;7.37;;;;;;;4.73;100.00;102625.22;5020570;28;20228;-50
2022/01/19 02:49:10;;;;;;;19.80;8.07;;;;;;;4.82;100.00;102622.22;5012422;28;20249;-50
2022/01/19 02:49:41;;;;;;;13.23;8.40;;;;;;;4.86;100.00;102609.44;5002044;28;20232;-48
2022/01/19 02:52:08;;;;;;;14.93;7.67;;;;;;;4.83;100.00;102613.59;5009753;28;20299;-49
2022/01/19 02:54:36;;;;;;;15.70;8.20;;;;;;;4.81;100.00;102610.00;5003158;28;20329;-49
2022/01/19 02:57:03;;;;;;;18.53;8.37;;;;;;;4.75;100.00;102605.38;5013198;28;20242;-49
2022/01/19 02:59:40;;;;;;;10.53;7.37;;;;;;;4.87;100.00;102599.94;5002753;28;20240;-50
2022/01/19 03:10:21;;;;;;;13.03;7.27;;;;;;;4.90;100.00;102574.06;4993977;28;20870;-48
2022/01/19 03:12:47;;;;;;;11.27;6.93;;;;;;;4.81;100.00;102573.56;5008794;28;20229;-50
2022/01/19 03:15:16;;;;;;;14.40;7.90;;;;;;;4.94;100.00;102576.00;5008129;28;20282;-50
2022/01/19 03:17:42;;;;;;;11.13;6.97;;;;;;;4.82;100.00;102570.19;5016675;28;20283;-50
2022/01/19 03:20:11;;;;;;;19.23;7.97;;;;;;;4.73;100.00;102567.97;4999769;28;20276;-50
2022/01/19 03:22:42;;;;;;;15.73;7.43;;;;;;;4.83;100.00;102567.66;4999746;28;20348;-49
2022/01/19 03:25:12;;;;;;;15.57;7.77;;;;;;;4.78;100.00;102551.81;4997144;28;20228;-50
2022/01/19 03:27:45;;;;;;;15.27;8.77;;;;;;;4.73;100.00;102550.66;5006807;28;20317;-49
2022/01/19 03:30:12;;;;;;;12.73;6.93;;;;;;;4.70;100.00;102552.19;5000680;28;20522;-50
2022/01/19 03:32:39;;;;;;;18.53;8.97;;;;;;;4.69;100.00;102548.72;4999474;28;20644;-51
2022/01/19 03:35:07;;;;;;;13.43;9.27;;;;;;;4.62;100.00;102551.81;4998600;28;20232;-50
2022/01/19 03:37:33;;;;;;;13.07;8.40;;;;;;;4.69;100.00;102538.31;5002134;28;20235;-49
2022/01/19 03:39:59;;;;;;;11.87;8.00;;;;;;;4.75;100.00;102537.75;5000948;28;20321;-48
2022/01/19 03:42:26;;;;;;;13.90;8.17;;;;;;;4.70;100.00;102523.59;5004033;28;20333;-49
2022/01/19 03:44:53;;;;;;;12.77;8.10;;;;;;;4.67;100.00;102524.34;5003699;28;20240;-48
2022/01/19 03:47:20;;;;;;;12.50;7.87;;;;;;;4.70;100.00;102521.91;4997362;28;20265;-51
2022/01/19 03:49:46;;;;;;;18.20;8.70;;;;;;;4.69;100.00;102521.81;5003751;28;20280;-50
2022/01/19 03:52:12;;;;;;;17.50;8.57;;;;;;;4.71;100.00;102510.66;5001535;28;20282;-50
2022/01/19 03:54:42;;;;;;;17.33;8.73;;;;;;;4.69;100.00;102512.28;4998165;28;20280;-51
2022/01/19 03:57:09;;;;;;;10.57;7.80;;;;;;;4.68;100.00;102513.13;5001223;28;20326;-51
2022/01/19 03:59:35;;;;;;;12.33;8.57;;;;;;;4.64;100.00;102507.69;5014430;28;20263;-50
2022/01/19 04:02:04;;;;;;;15.20;8.87;;;;;;;4.71;100.00;102494.19;4990430;28;20316;-49
2022/01/19 04:04:37;;;;;;;14.50;9.40;;;;;;;4.62;100.00;102489.38;5000230;28;20277;-48
2022/01/19 04:07:09;;;;;;;11.57;8.10;;;;;;;4.70;100.00;102489.75;5007636;28;20289;-49
2022/01/19 04:09:36;;;;;;;14.63;8.60;;;;;;;4.63;100.00;102485.94;4998753;28;20695;-48
2022/01/19 04:12:03;;;;;;;15.03;8.70;;;;;;;4.75;100.00;102484.00;5020423;28;20224;-50
2022/01/19 04:14:30;;;;;;;11.17;8.37;;;;;;;4.97;100.00;102492.88;5011770;28;20220;-51
2022/01/19 04:16:58;;;;;;;15.43;9.13;;;;;;;4.92;100.00;102490.06;5002360;28;20265;-50
2022/01/19 04:19:30;;;;;;;12.67;9.17;;;;;;;4.94;100.00;102485.78;5004941;28;20766;-49
2022/01/19 04:21:58;;;;;;;14.20;8.30;;;;;;;4.95;100.00;102484.09;5005029;28;20244;-48
2022/01/19 04:24:25;;;;;;;16.47;8.87;;;;;;;4.91;100.00;102476.94;4997367;28;20320;-49
2022/01/19 04:29:38;;;;;;;12.87;7.87;;;;;;;4.84;100.00;102477.44;5003710;28;20232;-50
2022/01/19 04:32:10;;;;;;;12.17;8.57;;;;;;;4.91;100.00;102466.53;4999460;28;20299;-48
2022/01/19 04:34:39;;;;;;;15.67;8.77;;;;;;;4.87;100.00;102465.50;5012150;28;20225;-53
2022/01/19 05:01:59;;;;;;;13.43;9.07;;;;;;;4.51;100.00;102404.72;4998104;28;20714;-50
2022/01/19 05:04:33;;;;;;;13.70;10.57;;;;;;;4.57;100.00;102412.81;5000392;28;20232;-50
2022/01/19 05:07:13;;;;;;;19.40;10.43;;;;;;;4.61;100.00;102413.88;5001735;28;20252;-49
2022/01/19 05:09:57;;;;;;;17.27;9.47;;;;;;;4.52;100.00;102409.97;5002744;28;20233;-52
2022/01/19 05:15:09;;;;;;;15.80;10.63;;;;;;;4.52;100.00;102414.28;5000088;28;20306;-52
2022/01/19 05:17:37;;;;;;;15.10;10.03;;;;;;;4.53;100.00;102406.56;4994016;28;20229;-50
2022/01/19 05:20:03;;;;;;;22.73;9.87;;;;;;;4.49;100.00;102396.84;4989829;28;20233;-49
2022/01/19 05:22:31;;;;;;;12.17;9.93;;;;;;;4.31;100.00;102391.56;5009633;28;20244;-49
2022/01/19 05:24:58;;;;;;;15.83;9.70;;;;;;;4.33;100.00;102389.06;5002229;28;20253;-50
2022/01/19 05:27:24;;;;;;;16.37;10.43;;;;;;;4.31;100.00;102383.78;5009966;28;20719;-51
2022/01/19 05:29:51;;;;;;;13.30;11.17;;;;;;;4.51;100.00;102381.28;5001570;28;20823;-51
2022/01/19 05:32:17;;;;;;;15.83;9.70;;;;;;;4.42;100.00;102379.16;4994798;28;20230;-50
2022/01/19 05:34:44;;;;;;;15.63;10.63;;;;;;;4.57;100.00;102371.22;5006469;28;20291;-50
2022/01/19 05:37:11;;;;;;;14.17;10.73;;;;;;;4.45;100.00;102367.97;5012028;28;20255;-51
2022/01/19 05:39:38;;;;;;;19.40;11.47;;;;;;;4.42;100.00;102358.34;5005544;28;20271;-46
2022/01/19 05:42:05;;;;;;;18.27;11.30;;;;;;;4.41;100.00;102368.66;5017568;28;20282;-49
2022/01/19 05:44:31;;;;;;;24.50;11.37;;;;;;;4.47;100.00;102367.25;5010090;28;20237;-51
2022/01/19 05:46:58;;;;;;;16.50;11.57;;;;;;;4.46;100.00;102369.78;5004037;28;20264;-51
2022/01/19 05:49:24;;;;;;;17.73;11.30;;;;;;;4.44;100.00;102369.69;5011645;28;20256;-48
2022/01/19 05:51:51;;;;;;;22.17;11.47;;;;;;;4.43;100.00;102364.44;5006388;28;20233;-51
2022/01/19 05:54:20;;;;;;;20.83;11.30;;;;;;;4.45;100.00;102362.78;5005740;28;20233;-50
2022/01/19 05:56:47;;;;;;;15.33;10.47;;;;;;;4.42;100.00;102363.53;5014394;28;20301;-48
2022/01/19 05:59:14;;;;;;;15.07;10.67;;;;;;;4.38;100.00;102363.28;5014783;28;20231;-49
2022/01/19 06:01:40;;;;;;;14.77;11.57;;;;;;;4.31;100.00;102359.47;4995164;28;20232;-50
2022/01/19 06:04:07;;;;;;;18.30;11.13;;;;;;;4.18;100.00;102341.50;5005664;28;20308;-49
2022/01/19 06:06:33;;;;;;;15.17;10.20;;;;;;;4.17;100.00;102343.19;5010755;28;20238;-48
2022/01/19 06:09:03;;;;;;;14.13;11.60;;;;;;;4.33;100.00;102338.78;5003647;28;20229;-50
2022/01/19 06:11:29;;;;;;;18.40;11.27;;;;;;;4.24;100.00;102334.88;4996493;28;20321;-48
2022/01/19 06:13:57;;;;;;;15.33;11.07;;;;;;;4.33;100.00;102333.56;5008835;28;20380;-52
2022/01/19 06:16:23;;;;;;;17.00;10.57;;;;;;;4.31;100.00;102331.78;5002230;28;20288;-51
2022/01/19 06:18:49;;;;;;;15.83;11.60;;;;;;;4.34;100.00;102324.94;5000962;28;20265;-48
2022/01/19 06:21:16;;;;;;;18.80;11.83;;;;;;;4.28;100.00;102304.72;5001104;28;20756;-50
2022/01/19 06:23:42;;;;;;;17.23;11.80;;;;;;;4.42;100.00;102297.63;4999712;28;20592;-50
2022/01/19 06:26:09;;;;;;;20.87;11.30;;;;;;;4.37;100.00;102294.78;5012517;28;20252;-49
2022/01/19 06:28:35;;;;;;;13.10;11.10;;;;;;;4.34;100.00;102278.16;5007266;28;20759;-50
2022/01/19 06:31:03;;;;;;;19.13;12.63;;;;;;;4.25;100.00;102271.69;4994154;28;20932;-50
2022/01/19 06:33:29;;;;;;;15.73;11.87;;;;;;;4.37;100.00;102267.91;4994822;28;20331;-51
2022/01/19 06:35:56;;;;;;;19.67;12.57;;;;;;;4.31;100.00;102268.47;5008239;28;21878;-48
2022/01/19 06:38:23;;;;;;;18.43;11.37;;;;;;;4.36;100.00;102255.72;4998182;28;20293;-52
2022/01/19 06:40:50;;;;;;;16.83;11.50;;;;;;;4.30;100.00;102256.31;5014506;28;20664;-51
2022/01/19 06:43:16;;;;;;;24.47;11.87;;;;;;;4.21;100.00;102245.44;4994460;28;20726;-51
2022/01/19 06:45:42;;;;;;;21.60;11.90;;;;;;;4.03;100.00;102235.03;5000444;28;20706;-49
2022/01/19 06:48:10;;;;;;;18.77;13.03;;;;;;;4.09;100.00;102231.88;5001297;28;20307;-49
2022/01/19 06:50:36;;;;;;;14.83;10.67;;;;;;;4.19;100.00;102229.78;5017541;28;20257;-51
2022/01/19 06:53:02;;;;;;;20.80;11.50;;;;;;;4.30;100.00;102226.00;5003903;28;20645;-48
2022/01/19 06:55:29;;;;;;;19.40;12.13;;;;;;;4.35;100.00;102218.41;5014333;28;20232;-47
2022/01/19 06:57:55;;;;;;;18.97;10.07;;;;;;;4.13;100.00;102210.41;5009153;28;20296;-48
2022/01/19 07:00:22;;;;;;;20.87;11.97;;;;;;;4.09;100.00;102204.16;5003494;28;20307;-51
2022/01/19 07:02:48;;;;;;;18.20;10.87;;;;;;;4.05;100.00;102207.44;5002624;28;20265;-50
2022/01/19 07:05:16;;;;;;;19.10;11.73;;;;;;;4.17;100.00;102201.94;5023531;28;20738;-49
2022/01/19 07:07:42;;;;;;;16.90;11.37;;;;;;;4.06;100.00;102193.63;5002904;28;20288;-51
2022/01/19 07:10:09;;;;;;;16.80;12.63;;;;;;;3.94;100.00;102190.44;5006304;28;20709;-50
2022/01/19 07:12:35;;;;;;;19.33;11.03;;;;;;;3.94;100.00;102191.31;5003458;28;20322;-50
2022/01/19 07:15:02;;;;;;;12.53;9.13;;;;;;;3.91;100.00;102177.28;4998949;28;20252;-51
2022/01/19 07:17:28;;;;;;;13.10;9.27;;;;;;;4.02;100.00;102178.69;5005858;28;20916;-50
2022/01/19 07:19:54;;;;;;;15.93;9.50;;;;;;;4.01;100.00;102171.72;5013513;28;20292;-51
2022/01/19 07:22:22;;;;;;;16.97;10.13;;;;;;;4.01;100.00;102163.94;5004563;28;20316;-54
2022/01/19 07:24:49;;;;;;;17.87;9.40;;;;;;;3.95;100.00;102155.81;4997832;28;20284;-53
2022/01/19 07:27:15;;;;;;;13.03;8.07;;;;;;;3.81;100.00;102157.75;5002664;28;20280;-51
2022/01/19 07:29:42;;;;;;;13.23;8.63;;;;;;;3.81;100.00;102145.63;4997311;28;20256;-49
2022/01/19 07:32:10;;;;;;;10.07;7.73;;;;;;;3.79;100.00;102152.50;5008239;28;20712;-50
2022/01/19 07:34:36;;;;;;;18.37;8.47;;;;;;;3.76;100.00;102146.25;5004782;28;20984;-51
2022/01/19 07:37:03;;;;;;;12.23;7.13;;;;;;;3.75;100.00;102149.63;4998380;28;20291;-50
2022/01/19 07:39:31;;;;;;;14.40;8.50;;;;;;;3.77;100.00;102148.03;5001896;28;20319;-52
2022/01/19 07:41:57;;;;;;;12.80;7.27;;;;;;;3.79;100.00;102135.97;5020452;28;20309;-52
2022/01/19 07:44:24;;;;;;;14.87;8.07;;;;;;;3.88;100.00;102132.97;5002666;28;20712;-51
2022/01/19 07:46:51;;;;;;;13.30;8.13;;;;;;;4.01;100.00;102123.25;4999289;28;20263;-50
2022/01/19 07:49:17;;;;;;;12.27;7.83;;;;;;;3.95;100.00;102117.75;5003584;28;20237;-50
2022/01/19 07:51:44;;;;;;;14.80;7.93;;;;;;;3.96;100.00;102124.72;5003558;28;20315;-52
2022/01/19 07:54:10;;;;;;;16.13;7.93;;;;;;;3.94;100.00;102120.28;4983385;28;20743;-52
2022/01/19 07:56:38;;;;;;;18.83;8.07;;;;;;;3.98;100.00;102119.59;4996454;28;20245;-51
2022/01/19 07:59:04;;;;;;;16.93;8.13;;;;;;;3.94;100.00;102115.09;4997352;28;20283;-53
2022/01/19 08:01:31;;;;;;;11.97;7.80;;;;;;;3.95;100.00;102109.06;4999965;28;20594;-53
2022/01/19 08:03:58;;;;;;;13.57;7.53;;;;;;;4.08;100.00;102108.84;4998747;28;20327;-53
2022/01/19 08:06:24;;;;;;;13.57;7.07;;;;;;;3.89;100.00;102106.16;4994793;28;20229;-50
2022/01/19 08:08:51;;;;;;;15.73;8.43;;;;;;;3.87;100.00;102103.50;4997561;28;20490;-52
2022/01/19 08:11:17;;;;;;;12.20;7.50;;;;;;;3.93;100.00;102097.69;5018335;28;20925;-52
2022/01/19 08:13:45;;;;;;;15.97;8.93;;;;;;;4.00;100.00;102099.75;4998667;28;20234;-48
2022/01/19 08:16:11;;;;;;;19.50;8.10;;;;;;;3.98;100.00;102091.03;4998300;28;20312;-53
2022/01/19 08:18:38;;;;;;;14.43;8.00;;;;;;;3.97;100.00;102094.44;4996458;28;20280;-52
2022/01/19 08:21:04;;;;;;;9.03;6.57;;;;;;;3.95;100.00;102088.28;5001031;28;20280;-53
2022/01/19 08:23:30;;;;;;;13.07;6.23;;;;;;;3.94;100.00;102087.38;4999294;28;20320;-54
2022/01/19 08:25:56;;;;;;;43.57;25.03;;;;;;;3.92;100.00;102075.13;5001373;28;20299;-52
2022/01/19 08:28:23;;;;;;;14.23;7.57;;;;;;;3.86;100.00;102065.34;5003665;28;20259;-51
2022/01/19 08:30:50;;;;;;;15.23;6.00;;;;;;;3.75;100.00;102067.41;5000794;28;20878;-50
2022/01/19 08:33:17;;;;;;;14.87;7.00;;;;;;;3.71;100.00;102057.69;5004352;28;20227;-50
2022/01/19 08:35:43;;;;;;;7.83;5.57;;;;;;;3.80;100.00;102070.25;5001507;28;20241;-50
2022/01/19 08:38:10;;;;;;;9.77;5.67;;;;;;;3.87;100.00;102061.03;5004524;28;20250;-52
2022/01/19 08:40:37;;;;;;;8.70;6.13;;;;;;;3.87;100.00;102066.25;5006727;28;20286;-51
2022/01/19 08:43:04;;;;;;;8.50;6.67;;;;;;;3.81;100.00;102054.72;4985700;28;20237;-52
2022/01/19 08:45:31;;;;;;;12.50;7.33;;;;;;;3.81;100.00;102059.03;5005834;28;20244;-52
2022/01/19 08:47:59;;;;;;;10.70;8.37;;;;;;;3.69;100.00;102056.75;4997687;28;20826;-51
2022/01/19 08:50:25;;;;;;;8.07;5.60;;;;;;;3.79;100.00;102048.59;5002343;28;20840;-52
2022/01/19 08:52:51;;;;;;;11.40;6.20;;;;;;;3.81;100.00;102041.72;4995658;28;20229;-50
2022/01/19 08:55:18;;;;;;;11.30;6.10;;;;;;;3.78;100.00;102035.50;5002295;28;20267;-52
2022/01/19 08:57:46;;;;;;;11.87;7.10;;;;;;;3.81;100.00;102041.72;4991083;28;20271;-50
2022/01/19 09:00:15;;;;;;;9.93;7.25;;;;;;;3.70;100.00;102048.13;4998201;28;20430;-55
2022/01/19 09:02:42;;;;;;;9.70;6.63;;;;;;;3.83;100.00;102049.63;4998876;28;20232;-52
2022/01/19 09:05:10;;;;;;;12.57;6.67;;;;;;;3.87;100.00;102037.66;5008077;28;20291;-53
2022/01/19 09:07:37;;;;;;;11.90;6.90;;;;;;;3.91;100.00;102044.78;5007467;28;20590;-53
2022/01/19 09:10:05;;;;;;;8.17;6.43;;;;;;;3.94;100.00;102042.34;4992650;28;20317;-51
2022/01/19 09:12:31;;;;;;;10.20;7.03;;;;;;;3.98;100.00;102039.06;5003857;28;20240;-52
2022/01/19 09:14:58;;;;;;;11.63;6.73;;;;;;;4.06;100.00;102029.91;4996720;28;20278;-51
2022/01/19 09:17:25;;;;;;;7.97;5.93;;;;;;;4.03;100.00;102032.34;5004770;28;20769;-51
2022/01/19 09:19:51;;;;;;;11.50;6.70;;;;;;;4.12;100.00;102019.78;4991320;28;20292;-51
2022/01/19 09:22:19;;;;;;;8.40;6.40;;;;;;;4.19;100.00;102014.06;5006298;28;20241;-51
2022/01/19 09:24:45;;;;;;;10.33;6.67;;;;;;;4.19;100.00;102014.06;5001512;28;20233;-50
2022/01/19 09:27:13;;;;;;;8.57;6.67;;;;;;;4.21;100.00;102016.69;5007461;28;20294;-52
2022/01/19 09:29:42;;;;;;;8.10;6.27;;;;;;;4.26;100.00;102008.31;5000575;28;20231;-53
2022/01/19 09:32:10;;;;;;;10.00;7.60;;;;;;;4.33;99.78;102000.78;5004502;28;20299;-51
2022/01/19 09:34:39;;;;;;;7.80;7.00;;;;;;;4.20;99.10;102000.22;4996589;28;20237;-50
2022/01/19 09:37:05;;;;;;;10.90;8.00;;;;;;;4.35;99.05;101999.13;4988530;28;20241;-50
2022/01/19 09:39:33;;;;;;;7.90;6.13;;;;;;;4.46;98.61;101990.13;4988510;28;20264;-53
2022/01/19 09:41:59;;;;;;;8.30;6.93;;;;;;;4.42;98.83;101980.38;5006032;28;20320;-52
2022/01/19 09:44:29;;;;;;;9.57;6.63;;;;;;;4.51;98.96;101981.69;4988485;28;20291;-50
2022/01/19 09:46:56;;;;;;;7.27;6.37;;;;;;;4.51;97.72;101984.28;5001889;28;20261;-53
2022/01/19 09:49:23;;;;;;;8.33;6.83;;;;;;;4.64;96.69;101985.72;5003880;28;20773;-50
2022/01/19 09:51:51;;;;;;;9.37;7.37;;;;;;;4.52;96.32;101985.16;4993816;28;20225;-51
2022/01/19 09:54:19;;;;;;;8.83;6.10;;;;;;;4.64;96.35;101983.13;5000938;28;20260;-50
2022/01/19 09:56:48;;;;;;;8.43;5.87;;;;;;;4.66;95.97;101981.44;4989768;28;20768;-51
2022/01/19 09:59:16;;;;;;;7.63;6.13;;;;;;;4.69;95.64;101976.38;4999781;28;20232;-51
2022/01/19 10:01:50;;;;;;;7.33;6.60;;;;;;;4.60;95.85;101973.41;4996883;28;20233;-51
2022/01/19 10:04:18;;;;;;;9.97;7.57;;;;;;;4.61;95.35;101982.97;5009652;28;20271;-52
2022/01/19 10:06:44;;;;;;;8.73;6.97;;;;;;;4.66;95.30;101976.25;4996828;28;20241;-53
2022/01/19 10:09:10;;;;;;;9.33;6.93;;;;;;;4.49;95.65;101969.41;5011290;28;20263;-51
2022/01/19 10:17:08;;;;;;;10.17;8.13;;;;;;;4.56;95.93;101948.06;5009865;28;20267;-52
2022/01/19 10:19:36;;;;;;;11.60;6.83;;;;;;;4.62;95.67;101950.03;5026279;28;20313;-53
2022/01/19 10:22:09;;;;;;;10.83;6.53;;;;;;;4.73;94.37;101941.88;5024029;28;20247;-53
2022/01/19 10:24:42;;;;;;;11.43;7.30;;;;;;;4.63;94.06;101944.91;5004734;28;20236;-51
2022/01/19 10:27:20;;;;;;;9.70;6.63;;;;;;;4.73;94.72;101948.78;5003770;28;20793;-52
2022/01/19 10:29:48;;;;;;;9.23;6.70;;;;;;;4.68;94.70;101933.00;5010323;28;20261;-49
2022/01/19 10:32:15;;;;;;;15.00;7.87;;;;;;;4.53;94.45;101932.34;5002007;28;20257;-50
2022/01/19 10:34:41;;;;;;;8.70;7.80;;;;;;;4.49;94.89;101935.63;5013753;28;20229;-50
2022/01/19 10:37:08;;;;;;;10.67;7.30;;;;;;;4.61;95.38;101922.28;5003283;28;20264;-54
2022/01/19 10:39:42;;;;;;;11.80;8.57;;;;;;;4.59;95.22;101930.00;4997355;28;20254;-52
2022/01/19 10:42:10;;;;;;;13.30;8.57;;;;;;;4.39;95.70;101923.03;5005591;28;20693;-51
2022/01/19 10:44:38;;;;;;;11.20;8.27;;;;;;;4.29;96.61;101920.06;5008017;28;20269;-50
2022/01/19 10:47:06;;;;;;;9.47;7.63;;;;;;;4.33;96.44;101923.69;4996965;28;20280;-53
2022/01/19 10:49:49;;;;;;;10.43;8.37;;;;;;;4.10;97.17;101914.88;5010283;28;20903;-52
2022/01/19 10:52:26;;;;;;;8.97;7.97;;;;;;;4.10;97.50;101919.19;4993918;28;20226;-50
2022/01/19 10:54:53;;;;;;;11.80;8.40;;;;;;;4.07;97.73;101904.31;4994127;28;20232;-51
2022/01/19 10:57:19;;;;;;;11.97;7.97;;;;;;;4.03;98.42;101894.63;5001796;28;20246;-51
2022/01/19 10:59:45;;;;;;;22.10;14.93;;;;;;;3.89;99.45;101890.53;4996924;28;20264;-50
2022/01/19 11:02:13;;;;;;;12.20;8.57;;;;;;;3.97;99.45;101889.19;4997325;28;20263;-52
2022/01/19 11:04:42;;;;;;;13.17;9.47;;;;;;;4.10;98.55;101883.69;4994426;28;20249;-51
2022/01/19 11:07:09;;;;;;;10.77;9.63;;;;;;;4.22;98.12;101870.34;5001158;28;20260;-53
2022/01/19 11:09:44;;;;;;;13.03;10.43;;;;;;;4.33;97.86;101863.88;4997901;28;20783;-51
2022/01/19 11:12:14;;;;;;;15.60;12.33;;;;;;;4.10;97.28;101855.09;5010107;28;20238;-49
2022/01/19 11:14:41;;;;;;;15.33;11.90;;;;;;;4.10;97.52;101841.22;5001363;28;20249;-53
2022/01/19 11:17:08;;;;;;;14.17;12.70;;;;;;;3.97;98.86;101827.72;5002510;28;20244;-50
2022/01/19 11:19:38;;;;;;;17.53;15.33;;;;;;;3.93;98.17;101822.28;4993618;28;20259;-52
2022/01/19 11:22:14;;;;;;;17.33;15.30;;;;;;;3.83;99.14;101816.72;5005520;28;20236;-53
2022/01/19 11:24:56;;;;;;;19.42;15.80;;;;;;;3.82;100.00;101801.94;5004032;28;20453;-51
2022/01/19 11:27:25;;;;;;;17.30;15.03;;;;;;;3.88;98.64;101803.91;5016550;28;20274;-52
2022/01/19 11:30:13;;;;;;;17.27;15.43;;;;;;;3.89;99.05;101800.47;5008530;28;20678;-52
2022/01/19 11:32:40;;;;;;;20.97;15.70;;;;;;;3.75;98.67;101807.69;4999773;28;20241;-53
2022/01/19 11:35:09;;;;;;;19.53;16.50;;;;;;;3.60;99.29;101796.63;4993979;28;20283;-52
2022/01/19 11:37:39;;;;;;;23.43;18.63;;;;;;;3.59;99.62;101789.66;5000894;28;20253;-52
2022/01/19 11:40:09;;;;;;;26.37;18.07;;;;;;;3.36;100.00;101778.25;4994433;28;20593;-51
2022/01/19 11:42:36;;;;;;;17.90;15.83;;;;;;;3.38;100.00;101768.81;5002363;28;20567;-50
2022/01/19 11:45:03;;;;;;;22.00;18.17;;;;;;;3.30;100.00;101754.59;4993244;28;20800;-52
2022/01/19 11:47:31;;;;;;;20.67;16.30;;;;;;;3.64;99.44;101756.09;5000201;28;20653;-53
2022/01/19 11:49:59;;;;;;;20.73;16.67;;;;;;;3.55;99.01;101756.59;5005789;28;20249;-52
2022/01/19 11:52:32;;;;;;;21.73;19.20;;;;;;;3.41;99.83;101757.69;4999112;28;20264;-52
2022/01/19 11:55:12;;;;;;;21.63;16.87;;;;;;;3.19;100.00;101769.69;5009743;28;20243;-51
2022/01/19 11:57:40;;;;;;;22.60;17.43;;;;;;;3.05;100.00;101748.34;4992001;28;20284;-50
2022/01/19 12:00:15;;;;;;;24.67;20.40;;;;;;;2.97;100.00;101733.22;5003854;28;20231;-52
2022/01/19 12:02:44;;;;;;;23.27;18.97;;;;;;;2.92;100.00;101719.16;5000918;28;20282;-51
2022/01/19 12:05:29;;;;;;;29.17;22.67;;;;;;;3.09;100.00;101707.84;5001750;28;20344;-50
2022/01/19 12:07:59;;;;;;;26.13;20.00;;;;;;;3.02;100.00;101710.94;4997721;28;20561;-52
2022/01/19 12:10:46;;;;;;;25.47;20.47;;;;;;;3.00;100.00;101708.31;5010096;28;20261;-52
2022/01/19 12:13:29;;;;;;;25.87;18.07;;;;;;;2.91;100.00;101702.69;5005414;28;20230;-50
2022/01/19 12:16:00;;;;;;;29.50;21.33;;;;;;;2.64;100.00;101697.13;5014486;28;20298;-53
2022/01/19 12:18:42;;;;;;;22.17;18.43;;;;;;;2.66;100.00;101679.06;5005126;28;20262;-53
2022/01/19 12:21:10;;;;;;;27.87;19.77;;;;;;;2.57;100.00;101674.34;5006898;28;20244;-52
2022/01/19 12:23:40;;;;;;;21.70;17.77;;;;;;;2.58;100.00;101668.31;5010168;28;20310;-54
2022/01/19 12:26:07;;;;;;;24.63;19.87;;;;;;;2.57;100.00;101658.78;5005346;28;20239;-52
2022/01/19 12:28:46;;;;;;;27.83;18.47;;;;;;;2.59;100.00;101646.75;5006198;28;20239;-52
2022/01/19 12:31:33;;;;;;;25.57;18.10;;;;;;;2.60;100.00;101643.38;4997805;28;20737;-52
2022/01/19 12:34:20;;;;;;;18.70;15.43;;;;;;;2.60;100.00;101633.91;5025677;28;20281;-52